createdAt,value
2023-04-15T07:14:39.349Z,18.50
2023-04-15T07:16:10.971Z,21.10
2023-04-15T07:17:42.379Z,21.37
2023-04-15T07:19:13.600Z,20.99
2023-04-15T07:20:44.898Z,21.92
2023-04-15T07:22:16.592Z,20.47
2023-04-15T07:23:48.507Z,18.94
2023-04-15T07:25:19.747Z,18.15
2023-04-15T07:26:56.857Z,17.68
2023-04-15T07:28:29.262Z,18.41
2023-04-15T07:30:00.518Z,19.90
2023-04-15T07:31:31.789Z,18.71
2023-04-15T07:33:03.328Z,15.63
2023-04-15T07:34:34.796Z,17.12
2023-04-15T07:36:05.986Z,16.97
2023-04-15T07:37:37.325Z,17.00
2023-04-15T07:39:08.619Z,15.08
2023-04-15T07:40:39.959Z,15.41
2023-04-15T07:42:11.132Z,15.51
2023-04-15T07:43:42.587Z,13.45
2023-04-15T07:45:14.005Z,12.75
2023-04-15T07:46:45.935Z,12.40
2023-04-15T07:48:17.177Z,11.98
2023-04-15T07:49:48.617Z,12.84
2023-04-15T07:51:19.925Z,12.31
2023-04-15T07:52:51.628Z,11.77
2023-04-15T07:54:22.910Z,11.61
2023-04-15T07:55:54.218Z,11.43
2023-04-15T07:57:25.548Z,11.03
2023-04-15T07:59:02.349Z,10.66
2023-04-15T08:00:34.077Z,10.24
2023-04-15T08:02:06.469Z,10.67
2023-04-15T08:03:37.986Z,10.80
2023-04-15T08:05:09.650Z,11.19
2023-04-15T08:06:41.149Z,10.68
2023-04-15T08:08:12.661Z,10.08
2023-04-15T08:09:44.126Z,10.84
2023-04-15T08:11:15.375Z,9.97
2023-04-15T08:12:46.777Z,10.32
2023-04-15T08:14:18.183Z,11.19
2023-04-15T08:15:49.696Z,9.34
2023-04-15T08:17:21.179Z,6.79
2023-04-15T08:18:52.564Z,8.62
2023-04-15T08:20:23.855Z,7.22
2023-04-15T08:21:55.268Z,7.94
2023-04-15T08:23:27.708Z,8.00
2023-04-15T08:24:59.347Z,8.40
2023-04-15T08:26:31.775Z,7.35
2023-04-15T08:28:03.417Z,6.95
2023-04-15T08:29:35.118Z,8.60
2023-04-15T08:31:06.693Z,8.08
2023-04-15T08:32:38.358Z,5.88
2023-04-15T08:34:10.963Z,4.00
2023-04-15T08:35:47.261Z,4.57
2023-04-15T08:37:18.563Z,5.35
2023-04-15T08:38:49.906Z,5.12
2023-04-15T08:40:21.284Z,5.06
2023-04-15T08:41:52.646Z,5.14
2023-04-15T08:43:24.263Z,7.43
2023-04-15T08:44:55.648Z,6.95
2023-04-15T08:46:26.957Z,7.92
2023-04-15T08:47:58.371Z,7.95
2023-04-15T08:49:29.701Z,5.05
2023-04-15T08:51:01.202Z,6.28
2023-04-15T08:52:32.536Z,6.89
2023-04-15T08:54:03.857Z,4.91
2023-04-15T08:55:35.240Z,5.74
2023-04-15T08:57:06.546Z,6.05
2023-04-15T08:58:38.140Z,5.58
2023-04-15T09:00:09.674Z,5.50
2023-04-15T09:01:41.186Z,6.45
2023-04-15T09:03:12.868Z,6.66
2023-04-15T09:04:45.051Z,6.99
2023-04-15T09:06:16.392Z,6.47
2023-04-15T09:07:47.784Z,5.49
2023-04-15T09:09:19.081Z,5.43
2023-04-15T09:10:50.521Z,5.51
2023-04-15T09:12:22.054Z,5.55
2023-04-15T09:13:53.752Z,5.19
2023-04-15T09:15:25.188Z,4.32
2023-04-15T09:16:56.554Z,5.45
2023-04-15T09:18:28.264Z,6.46
2023-04-15T09:19:59.593Z,5.89
2023-04-15T09:21:31.095Z,5.97
2023-04-15T09:23:02.449Z,7.71
2023-04-15T09:24:33.845Z,7.26
2023-04-15T09:26:05.237Z,7.16
2023-04-15T09:27:36.696Z,6.91
2023-04-15T09:29:08.064Z,5.74
2023-04-15T09:30:44.472Z,5.48
2023-04-15T09:32:15.828Z,4.86
2023-04-15T09:33:51.576Z,4.77
2023-04-15T09:35:23.388Z,5.19
2023-04-15T09:36:54.831Z,5.19
2023-04-15T09:38:26.458Z,6.29
2023-04-15T09:39:57.799Z,4.55
2023-04-15T09:41:29.144Z,6.24
2023-04-15T09:43:00.455Z,7.45
2023-04-15T09:44:31.812Z,4.81
2023-04-15T09:46:03.124Z,4.88
2023-04-15T09:47:35.079Z,6.10
2023-04-15T09:49:06.406Z,5.61
2023-04-15T09:50:38.105Z,7.01
2023-04-15T09:52:09.612Z,6.94
2023-04-15T09:53:40.889Z,6.83
2023-04-15T09:55:12.625Z,6.20
2023-04-15T09:56:44.261Z,6.48
2023-04-15T09:58:15.671Z,6.26
2023-04-15T09:59:47.140Z,5.32
2023-04-15T10:01:18.525Z,5.29
2023-04-15T10:02:50.093Z,5.44
2023-04-15T10:04:21.705Z,5.83
2023-04-15T10:05:53.164Z,6.77
2023-04-15T10:07:24.487Z,6.11
2023-04-15T10:08:55.855Z,6.04
2023-04-15T10:10:27.766Z,6.15
2023-04-15T10:11:59.363Z,6.38
2023-04-15T10:13:30.671Z,7.85
2023-04-15T10:15:01.916Z,7.50
2023-04-15T10:16:33.159Z,6.37
2023-04-15T10:18:04.526Z,5.67
2023-04-15T10:19:35.858Z,4.04
2023-04-15T10:21:07.306Z,5.94
2023-04-15T10:22:38.874Z,4.73
2023-04-15T10:24:10.188Z,6.89
2023-04-15T10:25:41.464Z,5.52
2023-04-15T10:27:12.801Z,6.35
2023-04-15T10:28:44.079Z,7.44
2023-04-15T10:30:15.461Z,7.64
2023-04-15T10:31:46.950Z,6.12
2023-04-15T10:33:18.406Z,6.29
2023-04-15T10:34:49.759Z,6.96
2023-04-15T10:36:21.196Z,4.75
2023-04-15T10:37:52.490Z,3.79
2023-04-15T10:39:23.832Z,4.21
2023-04-15T10:40:55.137Z,4.12
2023-04-15T10:42:26.482Z,3.91
2023-04-15T10:43:57.724Z,5.03
2023-04-15T10:45:29.062Z,6.82
2023-04-15T10:47:00.466Z,8.72
2023-04-15T10:48:31.968Z,7.22
2023-04-15T10:50:03.210Z,7.01
2023-04-15T10:51:34.578Z,6.32
2023-04-15T10:53:06.040Z,6.20
2023-04-15T10:54:37.814Z,5.91
2023-04-15T10:56:09.153Z,7.05
2023-04-15T10:57:40.472Z,6.27
2023-04-15T10:59:11.869Z,5.59
2023-04-15T11:00:43.226Z,4.77
2023-04-15T11:02:14.661Z,6.29
2023-04-15T11:03:46.473Z,5.00
2023-04-15T11:05:18.142Z,4.59
2023-04-15T11:06:50.303Z,5.55
2023-04-15T11:08:21.666Z,6.27
2023-04-15T11:09:52.953Z,6.57
2023-04-15T11:11:24.292Z,6.05
2023-04-15T11:12:55.652Z,5.90
2023-04-15T11:14:26.986Z,5.04
2023-04-15T11:15:58.389Z,6.61
2023-04-15T11:17:30.104Z,6.45
2023-04-15T11:19:01.759Z,6.07
2023-04-15T11:20:33.099Z,4.57
2023-04-15T11:22:04.550Z,5.31
2023-04-15T11:23:36.007Z,5.35
2023-04-15T11:25:07.500Z,5.81
2023-04-15T11:26:38.844Z,5.49
2023-04-15T11:28:10.102Z,3.83
2023-04-15T11:29:41.566Z,5.95
2023-04-15T11:31:12.915Z,5.08
2023-04-15T11:32:44.285Z,4.84
2023-04-15T11:34:15.638Z,4.92
2023-04-15T11:35:47.014Z,4.78
2023-04-15T11:37:18.429Z,4.85
2023-04-15T11:38:49.776Z,5.16
2023-04-15T11:40:20.990Z,4.76
2023-04-15T11:41:52.237Z,6.70
2023-04-15T11:43:23.591Z,6.85
2023-04-15T11:45:36.380Z,6.47
2023-04-15T11:47:07.946Z,5.96
2023-04-15T11:48:39.200Z,5.58
2023-04-15T11:50:11.087Z,5.92
2023-04-15T11:51:42.481Z,5.84
2023-04-15T11:53:13.863Z,4.96
2023-04-15T11:54:45.315Z,5.86
2023-04-15T11:56:16.877Z,6.30
2023-04-15T11:57:48.295Z,6.56
2023-04-15T11:59:19.532Z,6.87
2023-04-15T12:00:51.051Z,7.11
2023-04-15T12:02:31.855Z,7.27
2023-04-15T12:04:03.845Z,7.72
2023-04-15T12:05:35.512Z,6.90
2023-04-15T12:07:24.051Z,6.78
2023-04-15T12:08:55.449Z,6.14
2023-04-15T12:10:57.314Z,6.43
2023-04-15T12:12:46.273Z,6.92
2023-04-15T12:14:18.214Z,6.98
2023-04-15T12:15:59.756Z,6.69
2023-04-15T12:17:31.363Z,6.89
2023-04-15T12:19:23.477Z,6.96
2023-04-15T12:20:54.983Z,6.81
2023-04-15T12:22:53.905Z,7.10
2023-04-15T12:24:25.372Z,7.18
2023-04-15T12:25:56.776Z,7.35
2023-04-15T12:27:38.312Z,6.98
2023-04-15T12:29:42.587Z,6.87
2023-04-15T12:31:14.192Z,7.29
2023-04-15T12:33:21.412Z,6.51
2023-04-15T12:34:53.254Z,6.72
2023-04-15T12:36:24.577Z,6.94
2023-04-15T12:37:56.000Z,7.04
2023-04-15T12:39:29.277Z,7.23
2023-04-15T12:41:01.852Z,7.00
2023-04-15T12:42:33.316Z,7.00
2023-04-15T12:44:04.832Z,6.13
2023-04-15T12:45:36.293Z,6.79
2023-04-15T12:47:07.870Z,6.41
2023-04-15T12:48:39.190Z,6.09
2023-04-15T12:50:10.389Z,5.78
2023-04-15T12:51:41.673Z,6.16
2023-04-15T12:53:12.933Z,6.12
2023-04-15T12:54:44.374Z,6.38
2023-04-15T12:56:15.781Z,6.35
2023-04-15T12:57:47.755Z,6.48
2023-04-15T12:59:19.480Z,6.68
2023-04-15T13:00:50.861Z,6.67
2023-04-15T13:02:22.341Z,6.46
2023-04-15T13:03:53.739Z,5.53
2023-04-15T13:05:25.110Z,5.44
2023-04-15T13:06:56.529Z,5.32
2023-04-15T13:08:27.864Z,5.78
2023-04-15T13:09:59.276Z,5.88
2023-04-15T13:11:30.501Z,5.73
2023-04-15T13:13:01.914Z,5.63
2023-04-15T13:14:33.270Z,5.83
2023-04-15T13:16:04.546Z,5.58
2023-04-15T13:17:35.940Z,4.70
2023-04-15T13:19:07.394Z,5.04
2023-04-15T13:20:38.729Z,5.41
2023-04-15T13:22:10.049Z,5.39
2023-04-15T13:23:41.304Z,4.85
2023-04-15T13:25:12.879Z,4.54
2023-04-15T13:26:44.163Z,5.09
2023-04-15T13:28:15.584Z,4.83
2023-04-15T13:29:46.977Z,5.18
2023-04-15T13:31:18.371Z,4.98
2023-04-15T13:34:21.284Z,5.19
2023-04-15T13:35:52.511Z,4.93
2023-04-15T13:37:23.819Z,5.19
2023-04-15T13:38:55.351Z,4.31
2023-04-15T13:40:26.617Z,4.36
2023-04-15T13:42:36.014Z,4.30
2023-04-15T13:44:08.090Z,4.35
2023-04-15T13:45:39.524Z,4.59
2023-04-15T13:47:33.442Z,4.46
2023-04-15T13:49:10.414Z,4.82
2023-04-15T13:51:19.443Z,4.51
2023-04-15T13:52:50.767Z,4.72
2023-04-15T13:54:37.742Z,4.72
2023-04-15T13:56:09.428Z,4.90
2023-04-15T13:57:40.721Z,4.69
2023-04-15T13:59:11.995Z,4.78
2023-04-15T14:00:43.271Z,4.71
2023-04-15T14:02:14.713Z,4.18
2023-04-15T14:03:46.253Z,3.74
2023-04-15T14:05:17.694Z,3.66
2023-04-15T14:06:48.931Z,4.05
2023-04-15T14:08:20.340Z,3.90
2023-04-15T14:09:56.595Z,4.11
2023-04-15T14:11:27.957Z,4.06
2023-04-15T14:13:04.139Z,4.12
2023-04-15T14:14:35.413Z,4.20
2023-04-15T14:16:06.610Z,3.98
2023-04-15T14:17:37.966Z,4.21
2023-04-15T14:19:09.255Z,3.98
2023-04-15T14:20:40.542Z,3.97
2023-04-15T14:22:11.887Z,4.05
2023-04-15T14:23:43.150Z,4.38
2023-04-15T14:25:23.167Z,4.13
2023-04-15T14:27:02.057Z,4.25
2023-04-15T14:28:33.825Z,3.65
2023-04-15T14:30:05.233Z,3.52
2023-04-15T14:31:36.590Z,3.51
2023-04-15T14:33:07.915Z,3.65
2023-04-15T14:34:39.353Z,3.77
2023-04-15T14:36:10.660Z,3.60
2023-04-15T14:37:41.936Z,3.49
2023-04-15T14:39:13.219Z,3.36
2023-04-15T14:40:44.517Z,2.98
2023-04-15T14:42:15.847Z,3.62
2023-04-15T14:43:47.428Z,3.75
2023-04-15T14:45:18.931Z,3.61
2023-04-15T14:46:50.266Z,3.73
2023-04-15T14:48:21.591Z,3.80
2023-04-15T14:49:52.851Z,3.65
2023-04-15T14:51:24.345Z,3.84
2023-04-15T14:52:55.726Z,3.87
2023-04-15T14:54:27.246Z,3.61
2023-04-15T14:55:58.559Z,3.58
2023-04-15T14:57:35.033Z,3.28
2023-04-15T14:59:06.396Z,3.15
2023-04-15T15:00:37.861Z,3.33
2023-04-15T15:02:09.186Z,2.65
2023-04-15T15:03:40.808Z,2.84
2023-04-15T15:05:12.744Z,3.01
2023-04-15T15:06:44.166Z,2.75
2023-04-15T15:08:15.615Z,2.90
2023-04-15T15:09:47.047Z,3.25
2023-04-15T15:11:40.704Z,3.44
2023-04-15T15:13:12.038Z,2.62
2023-04-15T15:14:43.845Z,2.88
2023-04-15T15:16:15.169Z,3.38
2023-04-15T15:17:46.565Z,3.26
2023-04-15T15:19:17.956Z,3.28
2023-04-15T15:20:49.277Z,3.08
2023-04-15T15:22:21.487Z,3.30
2023-04-15T15:23:53.007Z,3.47
2023-04-15T15:25:24.411Z,3.56
2023-04-15T15:26:55.620Z,3.68
2023-04-15T15:28:27.070Z,3.63
2023-04-15T15:29:58.307Z,3.83
2023-04-15T15:31:29.663Z,3.81
2023-04-15T15:33:01.030Z,4.17
2023-04-15T15:34:33.319Z,4.30
2023-04-15T15:36:04.894Z,4.38
2023-04-15T15:37:36.255Z,4.48
2023-04-15T15:39:07.882Z,4.40
2023-04-15T15:40:59.330Z,4.51
2023-04-15T15:42:40.906Z,4.56
2023-04-15T15:44:12.528Z,4.80
2023-04-15T15:45:44.096Z,4.68
2023-04-15T15:47:15.335Z,4.33
2023-04-15T15:48:46.820Z,4.53
2023-04-15T15:50:18.421Z,4.54
2023-04-15T15:51:49.729Z,4.50
2023-04-15T15:53:21.047Z,4.82
2023-04-15T15:54:52.358Z,4.89
2023-04-15T15:56:23.592Z,4.80
2023-04-15T15:57:54.912Z,5.18
2023-04-15T15:59:26.156Z,4.98
2023-04-15T16:00:58.771Z,4.89
2023-04-15T16:03:02.056Z,4.82
2023-04-15T16:04:36.686Z,4.64
2023-04-15T16:06:08.128Z,4.93
2023-04-15T16:07:39.500Z,4.89
2023-04-15T16:09:10.763Z,5.27
2023-04-15T16:10:42.023Z,5.06
2023-04-15T16:12:13.295Z,5.21
2023-04-15T16:13:44.761Z,4.81
2023-04-15T16:15:16.308Z,5.40
2023-04-15T16:16:47.881Z,5.18
2023-04-15T16:18:19.225Z,5.40
2023-04-15T16:19:57.646Z,4.73
2023-04-15T16:21:32.166Z,4.88
2023-04-15T16:23:03.399Z,4.85
2023-04-15T16:24:34.976Z,5.08
2023-04-15T16:26:06.388Z,5.13
2023-04-15T16:27:50.337Z,5.04
2023-04-15T16:29:28.932Z,5.41
2023-04-15T16:31:00.337Z,5.38
2023-04-15T16:32:31.627Z,5.12
2023-04-15T16:34:02.857Z,5.14
2023-04-15T16:35:39.213Z,4.82
2023-04-15T16:37:10.414Z,4.75
2023-04-15T16:38:41.714Z,4.91
2023-04-15T16:40:12.938Z,4.95
2023-04-15T16:41:44.460Z,4.08
2023-04-15T16:43:15.768Z,5.06
2023-04-15T16:44:47.098Z,4.76
2023-04-15T16:46:18.610Z,3.96
2023-04-15T16:47:50.185Z,4.47
2023-04-15T16:49:21.639Z,4.94
2023-04-15T16:50:53.281Z,5.29
2023-04-15T16:52:24.671Z,5.56
2023-04-15T16:53:56.221Z,5.63
2023-04-15T16:55:27.599Z,5.03
2023-04-15T16:57:00.136Z,4.85
2023-04-15T16:58:31.428Z,4.76
2023-04-15T17:00:02.846Z,4.78
2023-04-15T17:01:34.210Z,4.30
2023-04-15T17:03:05.750Z,4.24
2023-04-15T17:04:37.723Z,4.67
2023-04-15T17:06:09.370Z,4.62
2023-04-15T17:07:40.623Z,4.99
2023-04-15T17:09:17.122Z,5.00
2023-04-15T17:10:48.334Z,5.22
2023-04-15T17:12:19.548Z,5.06
2023-04-15T17:13:50.881Z,5.18
2023-04-15T17:15:22.334Z,5.14
2023-04-15T17:16:53.578Z,5.32
2023-04-15T17:18:25.500Z,5.13
2023-04-15T17:19:57.366Z,4.38
2023-04-15T17:21:28.889Z,4.77
2023-04-15T17:23:00.973Z,5.00
2023-04-15T17:24:32.319Z,5.16
2023-04-15T17:26:08.825Z,4.75
2023-04-15T17:27:40.136Z,5.07
2023-04-15T17:29:11.345Z,4.89
2023-04-15T17:30:42.680Z,5.41
2023-04-15T17:32:14.057Z,5.87
2023-04-15T17:34:01.023Z,5.97
2023-04-15T17:36:05.346Z,5.65
2023-04-15T17:37:36.897Z,5.52
2023-04-15T17:39:08.120Z,6.24
2023-04-15T17:40:39.658Z,6.18
2023-04-15T17:42:31.283Z,5.52
2023-04-15T17:44:02.595Z,5.78
2023-04-15T17:45:33.924Z,6.38
2023-04-15T17:47:05.140Z,6.73
2023-04-15T17:48:36.374Z,6.48
2023-04-15T17:50:07.645Z,5.74
2023-04-15T17:51:39.096Z,6.15
2023-04-15T17:53:10.298Z,6.26
2023-04-15T17:54:47.374Z,6.23
2023-04-15T17:56:23.741Z,5.52
2023-04-15T17:57:55.117Z,5.55
2023-04-15T17:59:31.491Z,6.19
2023-04-15T18:01:03.017Z,6.58
2023-04-15T18:02:37.441Z,6.26
2023-04-15T18:04:09.443Z,5.75
2023-04-15T18:05:46.468Z,5.67
2023-04-15T18:07:17.775Z,5.96
2023-04-15T18:08:49.176Z,5.37
2023-04-15T18:10:20.501Z,5.66
2023-04-15T18:11:52.007Z,6.36
2023-04-15T18:13:23.588Z,5.94
2023-04-15T18:14:54.942Z,5.50
2023-04-15T18:16:47.344Z,5.59
2023-04-15T18:18:29.376Z,5.53
2023-04-15T18:20:00.778Z,5.47
2023-04-15T18:21:32.052Z,5.39
2023-04-15T18:23:03.354Z,5.64
2023-04-15T18:25:05.053Z,5.48
2023-04-15T18:26:36.419Z,5.59
2023-04-15T18:28:17.959Z,5.67
2023-04-15T18:30:09.644Z,5.96
2023-04-15T18:31:56.101Z,5.68
2023-04-15T18:33:27.446Z,5.71
2023-04-15T18:34:59.123Z,5.68
2023-04-15T18:36:30.510Z,5.30
2023-04-15T18:38:01.827Z,5.88
2023-04-15T18:39:33.283Z,5.91
2023-04-15T18:41:10.170Z,4.96
2023-04-15T18:42:41.630Z,5.86
2023-04-15T18:44:13.387Z,5.93
2023-04-15T18:45:45.980Z,5.49
2023-04-15T18:47:17.277Z,5.79
2023-04-15T18:48:48.700Z,5.97
2023-04-15T18:50:20.212Z,6.28
2023-04-15T18:51:51.535Z,6.33
2023-04-15T18:53:23.043Z,5.71
2023-04-15T18:54:54.386Z,5.35
2023-04-15T18:56:25.868Z,5.52
2023-04-15T18:57:57.070Z,6.12
2023-04-15T18:59:40.361Z,5.77
2023-04-15T19:01:12.020Z,6.08
2023-04-15T19:02:44.705Z,6.37
2023-04-15T19:04:16.204Z,5.01
2023-04-15T19:05:47.867Z,5.17
2023-04-15T19:07:19.380Z,4.72
2023-04-15T19:08:50.698Z,4.76
2023-04-15T19:10:22.284Z,4.91
2023-04-15T19:11:53.784Z,5.47
2023-04-15T19:13:25.101Z,5.35
2023-04-15T19:14:56.347Z,5.46
2023-04-15T19:16:27.719Z,5.16
2023-04-15T19:17:59.075Z,4.45
2023-04-15T19:19:30.425Z,5.11
2023-04-15T19:21:01.714Z,5.93
2023-04-15T19:22:32.964Z,5.04
2023-04-15T19:24:04.176Z,5.10
2023-04-15T19:25:35.645Z,4.89
2023-04-15T19:27:06.971Z,5.60
2023-04-15T19:28:38.802Z,5.76
2023-04-15T19:30:10.250Z,5.20
2023-04-15T19:31:41.484Z,4.95
2023-04-15T19:33:12.788Z,5.96
2023-04-15T19:34:44.016Z,5.60
2023-04-15T19:36:15.716Z,5.30
2023-04-15T19:37:47.256Z,5.30
2023-04-15T19:39:18.528Z,5.46
2023-04-15T19:40:50.097Z,5.59
2023-04-15T19:42:21.306Z,5.66
2023-04-15T19:43:52.601Z,5.72
2023-04-15T19:45:23.966Z,5.84
2023-04-15T19:46:55.371Z,6.10
2023-04-15T19:48:26.803Z,6.32
2023-04-15T19:49:58.074Z,6.23
2023-04-15T19:51:29.526Z,6.45
2023-04-15T19:53:00.902Z,6.05
2023-04-15T19:54:32.390Z,6.48
2023-04-15T19:56:03.585Z,5.77
2023-04-15T19:57:34.810Z,5.70
2023-04-15T19:59:06.205Z,5.22
2023-04-15T20:00:37.713Z,5.67
2023-04-15T20:02:09.304Z,5.97
2023-04-15T20:03:40.988Z,5.90
2023-04-15T20:05:12.413Z,5.26
2023-04-15T20:06:43.829Z,5.38
2023-04-15T20:08:15.321Z,5.92
2023-04-15T20:09:47.156Z,5.93
2023-04-15T20:11:20.442Z,5.67
2023-04-15T20:13:12.584Z,5.65
2023-04-15T20:14:43.914Z,5.32
2023-04-15T20:16:15.235Z,5.57
2023-04-15T20:17:46.616Z,5.43
2023-04-15T20:19:17.919Z,5.00
2023-04-15T20:21:04.679Z,5.50
2023-04-15T20:22:36.023Z,5.71
2023-04-15T20:24:07.355Z,5.40
2023-04-15T20:25:38.835Z,5.84
2023-04-15T20:27:10.224Z,5.96
2023-04-15T20:28:41.460Z,6.58
2023-04-15T20:30:12.701Z,5.99
2023-04-15T20:31:44.178Z,6.52
2023-04-15T20:33:15.705Z,6.70
2023-04-15T20:34:47.487Z,6.30
2023-04-15T20:36:18.703Z,5.48
2023-04-15T20:37:50.049Z,5.77
2023-04-15T20:39:21.404Z,6.40
2023-04-15T20:40:52.659Z,6.36
2023-04-15T20:42:24.139Z,6.44
2023-04-15T20:43:55.476Z,6.71
2023-04-15T20:45:26.761Z,6.57
2023-04-15T20:46:58.099Z,6.59
2023-04-15T20:48:29.734Z,5.89
2023-04-15T20:50:01.020Z,6.68
2023-04-15T20:51:32.531Z,6.16
2023-04-15T20:53:04.092Z,6.21
2023-04-15T20:54:35.553Z,6.70
2023-04-15T20:56:07.021Z,6.02
2023-04-15T20:57:38.560Z,6.43
2023-04-15T20:59:09.812Z,7.04
2023-04-15T21:00:41.520Z,6.82
2023-04-15T21:02:13.080Z,7.31
2023-04-15T21:03:44.568Z,6.56
2023-04-15T21:05:16.100Z,6.45
2023-04-15T21:06:47.990Z,7.03
2023-04-15T21:08:19.271Z,6.79
2023-04-15T21:09:50.540Z,6.39
2023-04-15T21:11:38.848Z,5.59
2023-04-15T21:13:24.474Z,5.73
2023-04-15T21:14:56.138Z,5.99
2023-04-15T21:16:27.481Z,6.78
2023-04-15T21:17:59.128Z,6.61
2023-04-15T21:19:30.487Z,7.18
2023-04-15T21:21:01.881Z,8.12
2023-04-15T21:22:33.141Z,7.62
2023-04-15T21:24:05.339Z,7.64
2023-04-15T21:25:36.555Z,7.85
2023-04-15T21:27:07.816Z,7.71
2023-04-15T21:28:44.273Z,8.82
2023-04-15T21:30:15.652Z,8.46
2023-04-15T21:31:47.025Z,7.16
2023-04-15T21:33:18.350Z,8.27
2023-04-15T21:34:49.560Z,8.89
2023-04-15T21:36:21.179Z,8.85
2023-04-15T21:37:52.583Z,9.44
2023-04-15T21:39:24.218Z,8.98
2023-04-15T21:40:55.550Z,9.79
2023-04-15T21:42:26.800Z,9.81
2023-04-15T21:43:58.246Z,8.03
2023-04-15T21:45:29.642Z,9.29
2023-04-15T21:47:00.955Z,9.45
2023-04-15T21:48:32.474Z,9.68
2023-04-15T21:50:05.006Z,10.07
2023-04-15T21:51:36.406Z,10.07
2023-04-15T21:53:07.720Z,10.04
2023-04-15T21:54:39.151Z,9.39
2023-04-15T21:56:10.726Z,10.43
2023-04-15T21:57:42.027Z,10.42
2023-04-15T21:59:13.478Z,8.33
2023-04-15T22:00:44.919Z,9.93
2023-04-15T22:02:16.283Z,10.24
2023-04-15T22:03:47.739Z,11.03
2023-04-15T22:05:19.162Z,9.98
2023-04-15T22:06:50.455Z,8.55
2023-04-15T22:08:21.750Z,9.51
2023-04-15T22:09:53.425Z,11.02
2023-04-15T22:11:24.816Z,11.64
2023-04-15T22:12:56.172Z,10.19
2023-04-15T22:14:28.096Z,11.70
2023-04-15T22:15:59.635Z,10.72
2023-04-15T22:17:32.258Z,10.53
2023-04-15T22:19:03.762Z,11.21
2023-04-15T22:20:35.375Z,10.92
2023-04-15T22:22:06.645Z,11.55
2023-04-15T22:23:38.384Z,11.79
2023-04-15T22:25:09.599Z,11.24
2023-04-15T22:26:40.831Z,10.88
2023-04-15T22:28:12.208Z,11.65
2023-04-15T22:29:43.547Z,11.74
2023-04-15T22:31:14.990Z,11.15
2023-04-15T22:32:46.784Z,11.83
2023-04-15T22:34:18.184Z,11.42
2023-04-15T22:35:49.627Z,11.66
2023-04-15T22:37:20.972Z,11.55
2023-04-15T22:38:52.272Z,12.82
2023-04-15T22:40:23.471Z,13.16
2023-04-15T22:41:54.694Z,11.89
2023-04-15T22:43:26.391Z,12.51
2023-04-15T22:44:57.932Z,11.36
2023-04-15T22:46:29.264Z,12.54
2023-04-15T22:48:00.659Z,13.67
2023-04-15T22:49:32.159Z,12.40
2023-04-15T22:51:03.512Z,13.00
2023-04-15T22:52:34.885Z,13.41
2023-04-15T22:54:06.231Z,14.27
2023-04-15T22:55:37.843Z,14.55
2023-04-15T22:57:09.278Z,14.16
2023-04-15T22:58:40.546Z,13.71
2023-04-15T23:00:11.733Z,13.23
2023-04-15T23:01:43.125Z,13.85
2023-04-15T23:03:15.017Z,13.88
2023-04-15T23:04:51.636Z,13.46
2023-04-15T23:06:23.071Z,14.47
2023-04-15T23:07:54.838Z,14.52
2023-04-15T23:09:26.170Z,14.81
2023-04-15T23:10:57.539Z,14.72
2023-04-15T23:12:28.770Z,15.08
2023-04-15T23:14:00.015Z,14.98
2023-04-15T23:15:31.298Z,14.40
2023-04-15T23:17:07.574Z,14.49
2023-04-15T23:18:38.904Z,13.88
2023-04-15T23:20:10.278Z,13.76
2023-04-15T23:21:41.533Z,15.10
2023-04-15T23:23:12.907Z,14.52
2023-04-15T23:24:44.477Z,14.13
2023-04-15T23:26:15.752Z,13.67
2023-04-15T23:27:47.480Z,14.76
2023-04-15T23:29:18.695Z,14.83
2023-04-15T23:30:50.001Z,15.16
2023-04-15T23:32:21.344Z,15.57
2023-04-15T23:33:52.982Z,15.37
2023-04-15T23:35:24.379Z,15.66
2023-04-15T23:36:56.153Z,15.75
2023-04-15T23:38:27.710Z,16.10
2023-04-15T23:39:58.921Z,15.23
2023-04-15T23:41:30.114Z,14.80
2023-04-15T23:43:01.454Z,15.14
2023-04-15T23:44:32.726Z,15.43
2023-04-15T23:46:03.906Z,15.15
2023-04-15T23:47:35.308Z,14.83
2023-04-15T23:49:06.676Z,13.72
2023-04-15T23:50:38.112Z,15.87
2023-04-15T23:52:09.561Z,15.07
2023-04-15T23:53:42.091Z,16.45
2023-04-15T23:55:13.555Z,16.08
2023-04-15T23:56:45.095Z,15.91
2023-04-15T23:58:16.412Z,17.69
2023-04-15T23:59:47.816Z,17.30
